THY777 LTAC-LTFM
Flight info
| Callsign | THY777 |
|---|---|
| Flight time | 0h 42m |
| Altitude | 28000 |
| Route | YAVRU1T/03L YAVRU A4 ERSEN |
| Aircraft | B77W/H-SDE1E2E3FGHIJ2J3J4J5M1RWXY/LB1D1 |
Departure
| Time | 2026-05-04 17:13 |
|---|---|
| Airport | Esenboğa International Airport (LTAC) |
Arrival
| Time | 2026-05-04 17:56 |
|---|---|
| Airport | İstanbul Airport (LTFM) |
| Time | Latitude | Longitude | Altitude | Speed | Heading |
|---|---|---|---|---|---|
| 2026-05-04 16:57 | 40.11274 | 32.98726 | 3115 ft | 0 kts | 128° |
| 2026-05-04 17:08 | 40.11279 | 32.98717 | 3106 ft | 0 kts | 126° |
| 2026-05-04 17:10 | 40.11249 | 32.98671 | 3115 ft | 6 kts | 261° |
| 2026-05-04 17:11 | 40.11261 | 32.98605 | 3115 ft | 12 kts | 298° |
| 2026-05-04 17:11 | 40.11312 | 32.98512 | 3114 ft | 13 kts | 305° |
| 2026-05-04 17:11 | 40.11420 | 32.98319 | 3114 ft | 17 kts | 306° |
| 2026-05-04 17:12 | 40.11492 | 32.98190 | 3114 ft | 18 kts | 311° |
| 2026-05-04 17:12 | 40.11979 | 32.98557 | 3119 ft | 106 kts | 36° |
| 2026-05-04 17:13 | 40.14805 | 33.01282 | 4389 ft | 184 kts | 37° |
| 2026-05-04 17:14 | 40.18102 | 33.04859 | 5782 ft | 244 kts | 37° |
| 2026-05-04 17:14 | 40.19456 | 33.06257 | 6457 ft | 251 kts | 28° |
| 2026-05-04 17:14 | 40.22891 | 33.06352 | 7924 ft | 265 kts | 331° |
| 2026-05-04 17:15 | 40.24264 | 33.04733 | 8839 ft | 272 kts | 306° |
| 2026-05-04 17:15 | 40.25829 | 33.00030 | 10246 ft | 299 kts | 291° |
| 2026-05-04 17:16 | 40.27377 | 32.94394 | 10861 ft | 352 kts | 291° |
| 2026-05-04 17:16 | 40.29979 | 32.84980 | 13793 ft | 376 kts | 291° |
| 2026-05-04 17:17 | 40.30884 | 32.81746 | 14852 ft | 380 kts | 291° |
| 2026-05-04 17:17 | 40.33697 | 32.71759 | 17907 ft | 398 kts | 292° |
| 2026-05-04 17:18 | 40.34665 | 32.68323 | 18832 ft | 404 kts | 292° |
| 2026-05-04 17:18 | 40.36621 | 32.61367 | 20616 ft | 415 kts | 293° |
| 2026-05-04 17:19 | 40.38641 | 32.54158 | 22323 ft | 426 kts | 296° |
| 2026-05-04 17:19 | 40.40713 | 32.46762 | 23972 ft | 435 kts | 297° |
| 2026-05-04 17:20 | 40.42781 | 32.39330 | 25786 ft | 433 kts | 297° |
| 2026-05-04 17:20 | 40.44492 | 32.33165 | 27294 ft | 432 kts | 297° |
| 2026-05-04 17:20 | 40.45520 | 32.29456 | 27855 ft | 432 kts | 298° |
| 2026-05-04 17:21 | 40.47572 | 32.22047 | 27958 ft | 432 kts | 298° |
| 2026-05-04 17:21 | 40.49619 | 32.14626 | 27946 ft | 432 kts | 298° |
| 2026-05-04 17:22 | 40.50987 | 32.09663 | 27966 ft | 432 kts | 298° |
| 2026-05-04 17:22 | 40.51664 | 32.07202 | 27955 ft | 433 kts | 298° |
| 2026-05-04 17:23 | 40.54725 | 31.96037 | 27946 ft | 432 kts | 298° |
| 2026-05-04 17:23 | 40.55742 | 31.92316 | 27968 ft | 433 kts | 298° |
| 2026-05-04 17:23 | 40.57777 | 31.84866 | 27963 ft | 433 kts | 298° |
| 2026-05-04 17:24 | 40.58778 | 31.81125 | 27979 ft | 434 kts | 297° |
| 2026-05-04 17:24 | 40.61573 | 31.69841 | 27942 ft | 433 kts | 295° |
| 2026-05-04 17:25 | 40.62495 | 31.66060 | 27986 ft | 432 kts | 295° |
| 2026-05-04 17:25 | 40.64340 | 31.58529 | 27999 ft | 432 kts | 296° |
| 2026-05-04 17:26 | 40.66192 | 31.50998 | 27996 ft | 432 kts | 296° |
| 2026-05-04 17:26 | 40.68953 | 31.39740 | 27988 ft | 431 kts | 296° |
| 2026-05-04 17:27 | 40.70786 | 31.32229 | 28006 ft | 430 kts | 296° |
| 2026-05-04 17:28 | 40.74439 | 31.17206 | 28002 ft | 429 kts | 296° |
| 2026-05-04 17:29 | 40.79844 | 30.94767 | 28020 ft | 427 kts | 296° |
| 2026-05-04 17:30 | 40.82488 | 30.83688 | 28000 ft | 412 kts | 296° |
| 2026-05-04 17:31 | 40.84174 | 30.76617 | 27385 ft | 398 kts | 296° |
| 2026-05-04 17:31 | 40.86454 | 30.66087 | 25947 ft | 400 kts | 287° |
| 2026-05-04 17:32 | 40.86884 | 30.58739 | 25166 ft | 400 kts | 279° |
| 2026-05-04 17:33 | 40.87203 | 30.47888 | 23971 ft | 392 kts | 280° |
| 2026-05-04 17:33 | 40.87313 | 30.44296 | 23607 ft | 389 kts | 280° |
| 2026-05-04 17:34 | 40.87649 | 30.33710 | 22383 ft | 380 kts | 279° |
| 2026-05-04 17:34 | 40.87757 | 30.30281 | 21996 ft | 377 kts | 279° |
| 2026-05-04 17:35 | 40.88080 | 30.20037 | 20795 ft | 369 kts | 279° |
| 2026-05-04 17:35 | 40.88287 | 30.13305 | 20045 ft | 364 kts | 278° |
| 2026-05-04 17:35 | 40.88385 | 30.09964 | 19637 ft | 363 kts | 278° |
| 2026-05-04 17:36 | 40.88487 | 30.06632 | 19279 ft | 361 kts | 278° |
| 2026-05-04 17:36 | 40.88587 | 30.03328 | 18943 ft | 358 kts | 278° |
| 2026-05-04 17:36 | 40.88683 | 30.00066 | 18594 ft | 357 kts | 278° |
| 2026-05-04 17:36 | 40.88779 | 29.96788 | 18173 ft | 356 kts | 278° |
| 2026-05-04 17:37 | 40.88873 | 29.93528 | 17748 ft | 354 kts | 278° |
| 2026-05-04 17:37 | 40.88962 | 29.90291 | 17378 ft | 351 kts | 278° |
| 2026-05-04 17:37 | 40.89052 | 29.87082 | 17003 ft | 348 kts | 278° |
| 2026-05-04 17:37 | 40.89142 | 29.83890 | 16623 ft | 346 kts | 278° |
| 2026-05-04 17:38 | 40.89229 | 29.80721 | 16236 ft | 343 kts | 278° |
| 2026-05-04 17:38 | 40.89314 | 29.77621 | 15880 ft | 340 kts | 278° |
| 2026-05-04 17:38 | 40.89398 | 29.74526 | 15500 ft | 339 kts | 278° |
| 2026-05-04 17:38 | 40.89482 | 29.71417 | 15127 ft | 337 kts | 278° |
| 2026-05-04 17:39 | 40.89645 | 29.65247 | 14405 ft | 334 kts | 278° |
| 2026-05-04 17:39 | 40.89724 | 29.62185 | 14054 ft | 332 kts | 278° |
| 2026-05-04 17:39 | 40.89800 | 29.59152 | 13690 ft | 330 kts | 278° |
| 2026-05-04 17:40 | 40.89878 | 29.56131 | 13312 ft | 328 kts | 277° |
| 2026-05-04 17:40 | 40.89955 | 29.53139 | 12937 ft | 325 kts | 277° |
| 2026-05-04 17:40 | 40.90030 | 29.50153 | 12564 ft | 323 kts | 277° |
| 2026-05-04 17:40 | 40.90104 | 29.47197 | 12211 ft | 321 kts | 277° |
| 2026-05-04 17:41 | 40.90176 | 29.44262 | 11877 ft | 318 kts | 277° |
| 2026-05-04 17:41 | 40.90244 | 29.41375 | 11748 ft | 309 kts | 277° |
| 2026-05-04 17:41 | 40.90305 | 29.38633 | 11445 ft | 292 kts | 277° |
| 2026-05-04 17:41 | 40.90368 | 29.35965 | 11146 ft | 289 kts | 277° |
| 2026-05-04 17:42 | 40.90431 | 29.33342 | 10921 ft | 285 kts | 277° |
| 2026-05-04 17:42 | 40.90493 | 29.30752 | 10622 ft | 283 kts | 277° |
| 2026-05-04 17:42 | 40.90555 | 29.28121 | 10320 ft | 282 kts | 277° |
| 2026-05-04 17:42 | 40.90614 | 29.25537 | 10031 ft | 280 kts | 277° |
| 2026-05-04 17:43 | 40.90670 | 29.22970 | 9638 ft | 280 kts | 278° |
| 2026-05-04 17:43 | 40.90730 | 29.20417 | 9320 ft | 278 kts | 278° |
| 2026-05-04 17:43 | 40.90787 | 29.17873 | 9050 ft | 275 kts | 278° |
| 2026-05-04 17:43 | 40.90842 | 29.15395 | 8790 ft | 272 kts | 278° |
| 2026-05-04 17:44 | 40.90896 | 29.12908 | 8519 ft | 269 kts | 278° |
| 2026-05-04 17:44 | 40.90950 | 29.10447 | 8247 ft | 267 kts | 279° |
| 2026-05-04 17:44 | 40.91002 | 29.08021 | 7985 ft | 264 kts | 279° |
| 2026-05-04 17:44 | 40.91053 | 29.05612 | 7733 ft | 262 kts | 279° |
| 2026-05-04 17:45 | 40.91093 | 29.03673 | 7528 ft | 260 kts | 279° |
| 2026-05-04 17:45 | 40.91147 | 29.01294 | 7272 ft | 256 kts | 281° |
| 2026-05-04 17:45 | 40.91468 | 28.99039 | 7014 ft | 247 kts | 293° |
| 2026-05-04 17:45 | 40.91988 | 28.96885 | 6776 ft | 245 kts | 295° |
| 2026-05-04 17:46 | 40.92527 | 28.94750 | 6509 ft | 245 kts | 295° |
| 2026-05-04 17:46 | 40.93058 | 28.92615 | 6270 ft | 244 kts | 295° |
| 2026-05-04 17:46 | 40.93575 | 28.90490 | 6088 ft | 241 kts | 295° |
| 2026-05-04 17:46 | 40.94077 | 28.88398 | 5888 ft | 237 kts | 295° |
| 2026-05-04 17:47 | 40.94566 | 28.86342 | 5705 ft | 232 kts | 294° |
| 2026-05-04 17:47 | 40.95042 | 28.84326 | 5506 ft | 227 kts | 294° |
| 2026-05-04 17:47 | 40.95505 | 28.82348 | 5302 ft | 222 kts | 294° |
| 2026-05-04 17:47 | 40.95952 | 28.80430 | 5121 ft | 215 kts | 294° |
| 2026-05-04 17:48 | 40.96384 | 28.78568 | 5070 ft | 210 kts | 295° |
| 2026-05-04 17:48 | 40.96812 | 28.76736 | 5079 ft | 208 kts | 295° |
| 2026-05-04 17:48 | 40.97305 | 28.74981 | 5004 ft | 197 kts | 310° |
| 2026-05-04 17:48 | 40.98327 | 28.73949 | 5011 ft | 184 kts | 346° |
| 2026-05-04 17:49 | 40.99582 | 28.73669 | 5012 ft | 184 kts | 352° |
| 2026-05-04 17:49 | 41.00846 | 28.73478 | 5007 ft | 185 kts | 355° |
| 2026-05-04 17:49 | 41.02121 | 28.73375 | 4996 ft | 182 kts | 357° |
| 2026-05-04 17:49 | 41.03395 | 28.73316 | 4852 ft | 186 kts | 358° |
| 2026-05-04 17:50 | 41.04693 | 28.73277 | 4618 ft | 186 kts | 358° |
| 2026-05-04 17:50 | 41.05982 | 28.73244 | 4353 ft | 184 kts | 359° |
| 2026-05-04 17:50 | 41.07251 | 28.73214 | 4105 ft | 180 kts | 359° |
| 2026-05-04 17:50 | 41.08505 | 28.73185 | 3872 ft | 181 kts | 359° |
| 2026-05-04 17:51 | 41.09764 | 28.73156 | 3619 ft | 180 kts | 359° |
| 2026-05-04 17:51 | 41.11031 | 28.73126 | 3389 ft | 184 kts | 359° |
| 2026-05-04 17:51 | 41.12300 | 28.73097 | 3119 ft | 178 kts | 359° |
| 2026-05-04 17:51 | 41.13492 | 28.73069 | 2867 ft | 164 kts | 360° |
| 2026-05-04 17:52 | 41.14578 | 28.73045 | 2682 ft | 147 kts | 360° |
| 2026-05-04 17:52 | 41.15538 | 28.73022 | 2483 ft | 129 kts | 0° |
| 2026-05-04 17:52 | 41.16406 | 28.73003 | 2320 ft | 123 kts | 360° |
| 2026-05-04 17:52 | 41.17270 | 28.72983 | 2173 ft | 128 kts | 0° |
| 2026-05-04 17:53 | 41.18167 | 28.72963 | 1967 ft | 128 kts | 1° |
| 2026-05-04 17:53 | 41.19045 | 28.72943 | 1786 ft | 128 kts | 1° |
| 2026-05-04 17:53 | 41.19936 | 28.72921 | 1647 ft | 129 kts | 1° |
| 2026-05-04 17:53 | 41.20850 | 28.72901 | 1454 ft | 131 kts | 0° |
| 2026-05-04 17:54 | 41.21770 | 28.72879 | 1249 ft | 133 kts | 360° |
| 2026-05-04 17:54 | 41.22685 | 28.72859 | 1040 ft | 130 kts | 358° |
| 2026-05-04 17:54 | 41.23588 | 28.72835 | 877 ft | 129 kts | 358° |
| 2026-05-04 17:54 | 41.24495 | 28.72819 | 689 ft | 134 kts | 357° |
| 2026-05-04 17:55 | 41.25431 | 28.72793 | 517 ft | 134 kts | 355° |
| 2026-05-04 17:55 | 41.26333 | 28.72775 | 371 ft | 131 kts | 356° |
| 2026-05-04 17:55 | 41.27194 | 28.72752 | 334 ft | 107 kts | 0° |
| 2026-05-04 17:55 | 41.27752 | 28.72740 | 337 ft | 54 kts | 358° |
| 2026-05-04 17:56 | 41.28019 | 28.72802 | 335 ft | 28 kts | 25° |
| 2026-05-04 17:56 | 41.28122 | 28.72882 | 333 ft | 9 kts | 45° |
| 2026-05-04 17:56 | 41.28111 | 28.72948 | 335 ft | 11 kts | 155° |
| 2026-05-04 17:56 | 41.28031 | 28.72961 | 335 ft | 12 kts | 177° |
| 2026-05-04 17:57 | 41.27946 | 28.72964 | 336 ft | 12 kts | 179° |
| 2026-05-04 17:57 | 41.27862 | 28.72966 | 335 ft | 12 kts | 179° |
| 2026-05-04 17:57 | 41.27778 | 28.72968 | 336 ft | 12 kts | 179° |
| 2026-05-04 17:57 | 41.27643 | 28.72970 | 338 ft | 27 kts | 179° |
| 2026-05-04 17:58 | 41.27452 | 28.72974 | 335 ft | 27 kts | 179° |
| 2026-05-04 17:58 | 41.27261 | 28.72980 | 335 ft | 27 kts | 179° |
| 2026-05-04 17:58 | 41.27086 | 28.72984 | 335 ft | 21 kts | 178° |
| 2026-05-04 17:58 | 41.26984 | 28.72993 | 333 ft | 12 kts | 156° |
| 2026-05-04 17:59 | 41.26955 | 28.73092 | 336 ft | 12 kts | 91° |
| 2026-05-04 17:59 | 41.26954 | 28.73208 | 339 ft | 13 kts | 88° |
| 2026-05-04 17:59 | 41.26834 | 28.73331 | 335 ft | 14 kts | 178° |
| 2026-05-04 18:00 | 41.26747 | 28.73334 | 335 ft | 9 kts | 179° |
| 2026-05-04 18:00 | 41.26683 | 28.73335 | 334 ft | 10 kts | 178° |
| 2026-05-04 18:00 | 41.26612 | 28.73349 | 335 ft | 12 kts | 164° |
| 2026-05-04 18:00 | 41.26523 | 28.73388 | 334 ft | 14 kts | 161° |
| 2026-05-04 18:01 | 41.26426 | 28.73433 | 333 ft | 15 kts | 161° |
| 2026-05-04 18:01 | 41.26335 | 28.73474 | 336 ft | 13 kts | 161° |
| 2026-05-04 18:01 | 41.26250 | 28.73514 | 334 ft | 13 kts | 151° |
| 2026-05-04 18:02 | 41.26243 | 28.73624 | 336 ft | 0 kts | 73° |